Time;durP1;ratioP1;P1;durP2;ratioP2;P2;SDS_P1;SDS_P2;PMS_P1;PMS_P2;Temp;Humidity;BMP_temperature;BMP_pressure;BME280_temperature;BME280_humidity;BME280_pressure;Samples;Min_cycle;Max_cycle;Signal;HPM_P1;HPM_P2
2022/07/09 00:00:00;;;;;;;15.95;8.32;;;;;;;16.68;88.96;102751.34;4897084;29;20115;-67
2022/07/09 00:02:25;;;;;;;14.77;8.95;;;;;;;16.66;89.63;102756.91;4896741;29;20964;-67
2022/07/09 00:04:51;;;;;;;16.08;8.27;;;;;;;16.61;90.19;102752.13;4897258;29;20049;-67
2022/07/09 00:07:16;;;;;;;15.23;8.00;;;;;;;16.59;90.79;102747.97;4896844;29;20035;-67
2022/07/09 00:09:41;;;;;;;18.45;8.43;;;;;;;16.56;89.72;102743.78;4897039;29;20037;-67
2022/07/09 00:12:07;;;;;;;16.45;8.63;;;;;;;16.55;90.76;102739.41;4897013;29;20041;-67
2022/07/09 00:14:33;;;;;;;20.10;9.95;;;;;;;16.52;89.97;102734.41;4896772;29;20039;-67
2022/07/09 00:16:58;;;;;;;16.58;8.65;;;;;;;16.50;89.41;102736.44;4896695;29;20388;-67
2022/07/09 00:19:24;;;;;;;19.30;8.82;;;;;;;16.49;88.76;102736.66;4896682;29;20037;-67
2022/07/09 00:21:49;;;;;;;22.60;8.93;;;;;;;16.45;88.71;102738.88;4897153;29;20037;-67
2022/07/09 00:24:14;;;;;;;13.88;7.63;;;;;;;16.38;89.32;102746.06;4896702;29;20037;-66
2022/07/09 00:26:40;;;;;;;21.58;7.53;;;;;;;16.36;88.79;102748.09;4879844;29;20143;-67
2022/07/09 00:29:05;;;;;;;17.02;9.02;;;;;;;16.38;91.00;102754.13;4896907;29;20055;-67
2022/07/09 00:31:30;;;;;;;18.33;9.25;;;;;;;16.34;91.06;102742.88;4896504;29;20548;-67
2022/07/09 00:33:56;;;;;;;16.95;8.20;;;;;;;16.28;90.49;102745.50;4896556;29;20539;-67
2022/07/09 00:36:21;;;;;;;13.93;8.10;;;;;;;16.24;90.58;102746.91;4896347;29;20033;-67
2022/07/09 00:38:46;;;;;;;14.00;7.82;;;;;;;16.20;90.78;102741.06;4896412;29;20495;-66
2022/07/09 00:41:12;;;;;;;21.65;9.10;;;;;;;16.14;91.16;102745.34;4896575;29;20373;-67
2022/07/09 00:43:37;;;;;;;15.27;8.05;;;;;;;16.13;91.29;102751.72;4896323;29;20395;-67
2022/07/09 00:46:02;;;;;;;27.00;9.57;;;;;;;16.10;89.55;102746.72;4896215;29;20833;-66
2022/07/09 00:48:28;;;;;;;15.20;8.32;;;;;;;16.09;91.48;102742.38;4896150;29;20033;-67
2022/07/09 00:50:54;;;;;;;26.10;8.68;;;;;;;16.09;90.31;102744.25;4896119;29;20060;-67
2022/07/09 00:53:23;;;;;;;18.27;8.82;;;;;;;16.06;90.67;102737.38;4895215;29;20037;-67
2022/07/09 00:55:48;;;;;;;13.80;8.18;;;;;;;16.10;90.93;102737.81;4895675;29;20733;-67
2022/07/09 00:58:19;;;;;;;23.88;9.77;;;;;;;16.07;90.27;102739.03;4895904;29;20551;-67
2022/07/09 01:00:45;;;;;;;20.92;8.27;;;;;;;16.09;90.72;102738.84;4895751;29;20028;-67
2022/07/09 01:03:10;;;;;;;15.32;8.15;;;;;;;16.06;90.90;102731.13;4896075;29;20502;-67
2022/07/09 01:05:35;;;;;;;16.20;8.25;;;;;;;16.10;91.02;102737.81;4895944;29;20119;-67
2022/07/09 01:08:04;;;;;;;16.33;8.23;;;;;;;16.07;91.32;102740.91;4895830;29;20906;-67
2022/07/09 01:10:29;;;;;;;24.85;10.75;;;;;;;16.00;89.73;102738.94;4895823;29;20039;-66
2022/07/09 01:12:55;;;;;;;26.05;10.10;;;;;;;15.96;89.97;102737.66;4895806;29;20036;-67
2022/07/09 01:15:20;;;;;;;24.42;9.32;;;;;;;15.93;89.31;102732.63;4895473;29;20056;-67
2022/07/09 01:17:46;;;;;;;21.30;10.40;;;;;;;15.87;90.22;102721.78;4895705;29;20040;-67
2022/07/09 01:20:11;;;;;;;28.45;11.07;;;;;;;15.92;90.04;102725.56;4895601;29;20532;-67
2022/07/09 01:22:37;;;;;;;25.67;11.00;;;;;;;15.94;90.20;102725.41;4895530;29;20091;-67
2022/07/09 01:25:07;;;;;;;23.33;10.45;;;;;;;15.95;90.64;102719.81;4895602;29;20036;-67
2022/07/09 01:27:33;;;;;;;23.70;12.57;;;;;;;15.97;90.29;102716.94;4895506;29;20381;-67
2022/07/09 01:29:58;;;;;;;21.05;10.40;;;;;;;15.95;89.77;102718.97;4895178;29;20029;-67
2022/07/09 01:32:23;;;;;;;20.10;10.05;;;;;;;15.93;89.87;102719.19;4895313;29;20035;-67
2022/07/09 01:34:49;;;;;;;17.48;10.48;;;;;;;15.94;90.89;102726.22;4895277;29;20047;-67
2022/07/09 01:37:15;;;;;;;16.40;9.65;;;;;;;15.96;91.78;102712.59;4895296;29;20463;-67
2022/07/09 01:39:49;;;;;;;15.82;10.00;;;;;;;15.95;92.23;102722.50;4895321;29;20040;-67
2022/07/09 01:42:16;;;;;;;20.83;10.75;;;;;;;15.92;91.74;102708.59;4879789;29;20115;-67
2022/07/09 01:44:42;;;;;;;22.42;12.13;;;;;;;15.85;91.59;102711.22;4895340;29;20552;-67
2022/07/09 01:47:07;;;;;;;19.98;10.88;;;;;;;15.82;92.00;102710.72;4895283;29;20032;-66
2022/07/09 01:49:33;;;;;;;20.83;11.70;;;;;;;15.80;92.23;102712.75;4895124;29;20098;-66
2022/07/09 01:51:58;;;;;;;17.60;10.57;;;;;;;15.78;93.19;102703.03;4895041;29;20040;-67
2022/07/09 01:54:23;;;;;;;25.98;12.02;;;;;;;15.74;92.82;102708.97;4895067;29;20147;-67
2022/07/09 01:56:49;;;;;;;23.77;10.98;;;;;;;15.58;92.19;102680.34;4877904;29;20439;-67
2022/07/09 01:59:14;;;;;;;17.35;9.48;;;;;;;15.66;91.60;102700.97;4894890;29;20040;-67
2022/07/09 02:01:39;;;;;;;20.60;10.32;;;;;;;15.64;92.32;102698.47;4894786;29;20063;-66
2022/07/09 02:04:05;;;;;;;17.00;10.35;;;;;;;15.63;93.49;102696.78;4894800;29;20025;-67
2022/07/09 02:06:30;;;;;;;22.52;11.88;;;;;;;15.63;93.76;102699.47;4894362;29;20112;-67
2022/07/09 02:08:55;;;;;;;17.27;9.60;;;;;;;15.55;92.50;102692.31;4894745;29;20060;-67
2022/07/09 02:11:21;;;;;;;22.45;10.48;;;;;;;15.47;92.45;102692.41;4895176;29;20119;-66
2022/07/09 02:13:46;;;;;;;18.40;9.80;;;;;;;15.49;92.82;102690.38;4894563;29;20066;-66
2022/07/09 02:16:11;;;;;;;18.27;9.88;;;;;;;15.49;93.02;102693.06;4894559;29;20075;-66
2022/07/09 02:18:37;;;;;;;21.42;10.13;;;;;;;15.47;92.17;102687.03;4894682;29;20515;-67
2022/07/09 02:21:04;;;;;;;18.60;9.27;;;;;;;15.45;92.07;102688.22;4894471;29;20033;-67
2022/07/09 02:23:30;;;;;;;20.10;11.60;;;;;;;15.43;93.72;102688.44;4894618;29;20040;-67
2022/07/09 02:25:55;;;;;;;19.33;9.70;;;;;;;15.43;94.50;102688.44;4894745;29;20583;-67
2022/07/09 02:28:20;;;;;;;18.88;11.55;;;;;;;15.45;95.05;102685.53;4877346;29;20484;-67
2022/07/09 02:30:46;;;;;;;18.83;11.07;;;;;;;15.44;93.88;102686.56;4894525;29;20091;-67
2022/07/09 02:33:11;;;;;;;20.60;11.68;;;;;;;15.38;93.86;102688.16;4894304;29;20501;-66
2022/07/09 02:35:37;;;;;;;18.30;10.70;;;;;;;15.34;94.33;102687.66;4894250;29;20043;-67
2022/07/09 02:38:02;;;;;;;24.27;11.32;;;;;;;15.34;94.72;102681.47;4894399;29;20056;-66
2022/07/09 02:40:27;;;;;;;21.63;10.95;;;;;;;15.32;95.27;102678.09;4894242;29;20136;-67
2022/07/09 02:42:53;;;;;;;20.35;10.85;;;;;;;15.27;94.79;102669.75;4877172;29;20095;-67
2022/07/09 02:45:18;;;;;;;20.02;11.43;;;;;;;15.28;95.17;102664.22;4894190;29;20476;-67
2022/07/09 02:47:43;;;;;;;16.20;9.52;;;;;;;15.26;94.57;102663.56;4894306;29;20083;-67
2022/07/09 02:50:09;;;;;;;20.25;11.55;;;;;;;15.23;95.17;102661.22;4894204;29;20575;-67
2022/07/09 02:52:34;;;;;;;21.60;10.63;;;;;;;15.24;94.18;102667.44;4877391;29;20444;-67
2022/07/09 02:55:00;;;;;;;23.42;11.25;;;;;;;15.21;94.90;102662.44;4893734;29;20040;-67
2022/07/09 02:57:25;;;;;;;20.17;12.52;;;;;;;15.19;95.71;102664.47;4893863;29;20385;-67
2022/07/09 02:59:50;;;;;;;22.85;11.88;;;;;;;15.16;96.31;102662.16;4894202;29;20046;-67
2022/07/09 03:02:16;;;;;;;18.83;10.07;;;;;;;15.13;95.53;102664.19;4893884;29;20072;-67
2022/07/09 03:04:41;;;;;;;21.33;11.15;;;;;;;15.09;95.31;102659.34;4893998;29;20040;-67
2022/07/09 03:07:06;;;;;;;19.23;11.13;;;;;;;15.01;95.60;102660.28;4893804;29;20047;-66
2022/07/09 03:09:32;;;;;;;18.55;11.82;;;;;;;15.01;94.99;102670.16;4876767;29;20056;-67
2022/07/09 03:11:57;;;;;;;18.80;9.90;;;;;;;14.98;95.32;102659.78;4893788;29;20476;-67
2022/07/09 03:14:23;;;;;;;20.73;11.25;;;;;;;14.92;95.11;102661.34;4893906;29;20452;-70
2022/07/09 03:16:48;;;;;;;20.45;10.55;;;;;;;14.89;95.05;102662.53;4894173;29;20080;-70
2022/07/09 03:19:14;;;;;;;22.48;10.23;;;;;;;14.84;94.87;102653.38;4897873;29;20037;-70
2022/07/09 03:21:39;;;;;;;22.50;11.75;;;;;;;14.86;95.08;102659.41;4897808;29;20048;-70
2022/07/09 03:24:05;;;;;;;24.60;12.30;;;;;;;14.89;96.97;102659.84;4897742;29;20493;-70
2022/07/09 03:26:30;;;;;;;22.20;14.70;;;;;;;14.91;97.81;102667.75;4897624;29;20119;-70
2022/07/09 03:28:56;;;;;;;20.25;12.38;;;;;;;14.91;97.34;102665.06;4897646;29;20040;-70
2022/07/09 03:31:21;;;;;;;18.33;10.43;;;;;;;14.84;96.00;102664.09;4897726;29;20032;-70
2022/07/09 03:33:46;;;;;;;21.25;11.00;;;;;;;14.77;95.48;102665.84;4897444;29;20481;-70
2022/07/09 03:36:12;;;;;;;16.88;10.32;;;;;;;14.77;95.46;102679.25;4897353;29;20032;-70
2022/07/09 03:38:37;;;;;;;17.58;10.63;;;;;;;14.75;95.28;102670.53;4897335;29;20033;-70
2022/07/09 03:41:03;;;;;;;20.20;10.77;;;;;;;14.67;94.61;102658.00;4897256;29;20037;-70
2022/07/09 03:43:28;;;;;;;19.27;9.80;;;;;;;14.59;94.75;102650.88;4897344;29;20032;-70
2022/07/09 03:45:54;;;;;;;17.10;10.02;;;;;;;14.60;95.00;102652.53;4897247;29;20434;-70
2022/07/09 03:48:20;;;;;;;17.13;9.75;;;;;;;14.67;94.79;102666.94;4897576;29;20036;-70
2022/07/09 03:50:45;;;;;;;18.63;10.25;;;;;;;14.69;95.22;102656.00;4897314;29;20039;-70
2022/07/09 03:53:10;;;;;;;20.15;11.07;;;;;;;14.69;95.74;102656.81;4897152;29;20123;-70
2022/07/09 03:55:36;;;;;;;18.40;10.65;;;;;;;14.66;96.53;102656.34;4897132;29;20160;-70
2022/07/09 03:58:01;;;;;;;21.67;12.50;;;;;;;14.60;96.24;102655.22;4897249;29;20480;-70
2022/07/09 04:00:28;;;;;;;19.48;11.40;;;;;;;14.51;94.94;102644.69;4897149;29;20036;-70
2022/07/09 04:02:53;;;;;;;18.63;11.57;;;;;;;14.60;95.40;102660.59;4896987;29;20188;-70
2022/07/09 04:05:19;;;;;;;25.13;10.43;;;;;;;14.60;94.62;102654.41;4897075;29;20544;-70
2022/07/09 04:07:44;;;;;;;19.25;11.75;;;;;;;14.62;95.00;102657.75;4896806;29;20024;-70
2022/07/09 04:10:10;;;;;;;22.63;11.73;;;;;;;14.66;95.51;102659.88;4896903;29;20032;-70
2022/07/09 04:12:36;;;;;;;23.85;11.60;;;;;;;14.64;95.13;102648.47;4896814;29;20499;-70
2022/07/09 04:15:01;;;;;;;23.23;10.90;;;;;;;14.71;94.89;102655.81;4896784;29;20036;-70
2022/07/09 04:17:27;;;;;;;20.88;10.65;;;;;;;14.72;94.63;102649.41;4896684;29;20043;-70
2022/07/09 04:19:52;;;;;;;24.70;12.85;;;;;;;14.70;95.28;102657.69;4896717;29;20051;-70
2022/07/09 04:22:17;;;;;;;20.45;11.10;;;;;;;14.65;95.43;102646.63;4896770;29;20031;-70
2022/07/09 04:24:43;;;;;;;21.38;11.93;;;;;;;14.78;95.95;102656.78;4896527;29;20042;-70
2022/07/09 04:27:08;;;;;;;19.63;12.20;;;;;;;14.71;95.77;102640.53;4896712;29;20096;-70
2022/07/09 04:29:34;;;;;;;21.02;13.07;;;;;;;14.77;96.25;102661.28;4896154;29;20421;-71
2022/07/09 04:31:59;;;;;;;21.65;12.15;;;;;;;14.70;96.30;102663.06;4896538;29;20039;-70
2022/07/09 04:34:24;;;;;;;19.92;11.40;;;;;;;14.66;96.44;102656.34;4896416;29;20171;-70
2022/07/09 04:36:49;;;;;;;18.05;11.68;;;;;;;14.64;97.09;102653.84;4896434;29;20032;-70
2022/07/09 04:39:15;;;;;;;19.95;11.35;;;;;;;14.57;97.15;102644.84;4896815;29;20044;-70
2022/07/09 04:41:40;;;;;;;17.35;10.10;;;;;;;14.58;96.96;102659.09;4896266;29;20036;-70
2022/07/09 04:44:07;;;;;;;18.20;10.95;;;;;;;14.55;97.28;102654.91;4896224;29;20067;-70
2022/07/09 04:46:32;;;;;;;16.60;9.57;;;;;;;14.56;97.34;102647.69;4896155;29;20516;-70
2022/07/09 04:48:57;;;;;;;20.38;12.23;;;;;;;14.57;97.61;102652.06;4896109;29;20083;-70
2022/07/09 04:51:23;;;;;;;19.60;11.25;;;;;;;14.60;97.97;102654.41;4896123;29;20092;-70
2022/07/09 04:53:48;;;;;;;17.98;11.07;;;;;;;14.61;97.81;102656.88;4896597;29;20040;-70
2022/07/09 04:56:14;;;;;;;20.88;12.90;;;;;;;14.67;98.04;102653.50;4895929;29;20051;-70
2022/07/09 04:58:51;;;;;;;19.08;11.98;;;;;;;14.67;97.67;102644.59;4896015;29;20036;-67
2022/07/09 05:01:19;;;;;;;19.92;10.75;;;;;;;14.84;97.44;102653.38;4895960;29;20057;-67
2022/07/09 05:03:46;;;;;;;24.40;13.60;;;;;;;15.04;97.71;102657.22;4895962;29;20047;-66
2022/07/09 05:06:16;;;;;;;23.20;12.18;;;;;;;15.23;97.42;102653.16;4896014;29;20366;-67
2022/07/09 05:08:41;;;;;;;24.65;13.75;;;;;;;15.43;97.16;102650.78;4895842;29;20028;-67
2022/07/09 05:11:07;;;;;;;19.80;11.45;;;;;;;15.62;97.04;102651.25;4895980;29;20044;-67
2022/07/09 05:13:32;;;;;;;19.38;11.82;;;;;;;15.70;96.34;102643.94;4895864;29;20035;-67
2022/07/09 05:15:57;;;;;;;22.75;13.57;;;;;;;15.73;96.80;102656.19;4895787;29;20163;-67
2022/07/09 05:18:23;;;;;;;21.08;12.02;;;;;;;15.73;96.85;102654.31;4895641;29;20032;-67
2022/07/09 05:20:48;;;;;;;23.17;13.48;;;;;;;15.76;97.12;102645.06;4895647;29;20123;-67
2022/07/09 05:23:13;;;;;;;22.35;12.98;;;;;;;15.83;97.28;102639.78;4895600;29;20400;-67
2022/07/09 05:25:39;;;;;;;23.13;13.02;;;;;;;15.88;97.28;102634.66;4895454;29;20033;-67
2022/07/09 05:28:04;;;;;;;21.63;12.95;;;;;;;15.96;97.75;102645.31;4895517;29;20067;-67
2022/07/09 05:30:29;;;;;;;22.45;12.90;;;;;;;16.02;98.08;102643.72;4895356;29;20412;-67
2022/07/09 05:32:55;;;;;;;21.38;12.93;;;;;;;16.09;97.67;102639.25;4895340;29;20544;-67
2022/07/09 05:35:20;;;;;;;24.55;14.18;;;;;;;16.27;96.74;102644.19;4895469;29;20071;-67
2022/07/09 05:37:46;;;;;;;25.70;15.40;;;;;;;16.41;97.04;102632.56;4895207;29;20044;-67
2022/07/09 05:40:12;;;;;;;23.42;14.10;;;;;;;16.57;96.13;102631.47;4894768;29;20028;-70
2022/07/09 05:42:38;;;;;;;29.90;16.50;;;;;;;16.67;95.68;102634.69;4895234;29;20162;-70
2022/07/09 05:45:04;;;;;;;26.63;14.73;;;;;;;16.72;94.65;102632.22;4895137;29;20055;-70
2022/07/09 05:47:30;;;;;;;24.65;14.32;;;;;;;16.77;95.04;102632.53;4895257;29;20116;-70
2022/07/09 05:49:55;;;;;;;26.38;13.45;;;;;;;16.76;95.28;102630.81;4895163;29;20127;-70
2022/07/09 05:52:20;;;;;;;29.33;16.55;;;;;;;16.79;95.45;102624.22;4895053;29;20482;-70
2022/07/09 05:54:46;;;;;;;27.55;16.05;;;;;;;16.82;95.72;102626.53;4895414;29;20195;-70
2022/07/09 05:57:11;;;;;;;23.77;16.08;;;;;;;16.82;95.67;102621.13;4894624;29;20994;-70
2022/07/09 05:59:36;;;;;;;26.38;14.68;;;;;;;16.82;95.38;102629.22;4894882;29;20041;-70
2022/07/09 06:02:02;;;;;;;23.23;14.15;;;;;;;16.88;96.39;102628.47;4894850;29;20056;-70
2022/07/09 06:04:28;;;;;;;24.48;15.73;;;;;;;17.03;95.70;102636.47;4895258;29;20101;-70
2022/07/09 06:06:54;;;;;;;25.13;16.45;;;;;;;17.20;94.62;102631.59;4894831;29;20028;-70
2022/07/09 06:09:19;;;;;;;27.85;17.30;;;;;;;17.23;94.05;102636.59;4894803;29;20071;-70
2022/07/09 06:11:44;;;;;;;24.50;17.40;;;;;;;17.27;94.98;102643.28;4894383;29;20040;-70
2022/07/09 06:14:10;;;;;;;32.15;18.20;;;;;;;17.19;94.57;102633.47;4894706;29;20051;-70
2022/07/09 06:16:36;;;;;;;27.95;18.80;;;;;;;17.23;94.33;102644.69;4894437;29;20072;-70
2022/07/09 06:19:01;;;;;;;29.52;20.15;;;;;;;17.26;94.78;102639.72;4894623;29;20473;-70
2022/07/09 06:21:26;;;;;;;27.88;19.85;;;;;;;17.31;94.60;102644.53;4894357;29;20123;-67
2022/07/09 06:23:52;;;;;;;29.70;21.23;;;;;;;17.36;93.94;102643.94;4894543;29;20036;-67
2022/07/09 06:26:17;;;;;;;30.90;21.65;;;;;;;17.46;93.94;102650.63;4894418;29;20024;-67
2022/07/09 06:28:42;;;;;;;29.98;22.08;;;;;;;17.48;94.10;102653.16;4894434;29;20045;-67
2022/07/09 06:31:08;;;;;;;31.73;22.50;;;;;;;17.46;93.68;102656.03;4894278;29;20491;-68
2022/07/09 06:33:33;;;;;;;33.00;21.08;;;;;;;17.48;93.67;102653.97;4877383;29;20051;-67
2022/07/09 06:35:59;;;;;;;29.45;22.90;;;;;;;17.56;93.55;102652.16;4894182;29;20048;-67
2022/07/09 06:38:27;;;;;;;30.13;21.10;;;;;;;17.60;93.34;102648.00;4894119;29;20393;-67
2022/07/09 06:40:54;;;;;;;30.52;23.67;;;;;;;17.66;94.26;102644.53;4894235;29;20036;-67
2022/07/09 06:43:19;;;;;;;31.60;23.63;;;;;;;17.70;93.66;102648.50;4894152;29;20039;-67
2022/07/09 06:45:45;;;;;;;31.52;25.95;;;;;;;17.78;93.77;102658.28;4894039;29;20040;-67
2022/07/09 06:48:10;;;;;;;34.10;25.58;;;;;;;17.80;93.76;102651.69;4894058;29;20025;-67
2022/07/09 06:50:35;;;;;;;31.52;25.60;;;;;;;17.80;92.94;102640.88;4894016;29;20044;-67
2022/07/09 06:53:01;;;;;;;33.83;26.20;;;;;;;17.93;93.04;102651.75;4893936;29;20032;-67
2022/07/09 06:55:26;;;;;;;33.75;26.08;;;;;;;17.96;92.73;102654.03;4893996;29;20032;-67
2022/07/09 06:57:52;;;;;;;33.90;25.48;;;;;;;17.99;92.65;102650.09;4893865;29;20039;-67
2022/07/09 07:00:17;;;;;;;34.47;24.88;;;;;;;18.06;92.68;102650.13;4893909;29;20025;-66
2022/07/09 07:02:43;;;;;;;31.77;25.77;;;;;;;18.11;92.53;102640.38;4893610;29;20147;-68
2022/07/09 07:05:08;;;;;;;32.35;24.83;;;;;;;18.22;92.31;102633.56;4893795;29;20037;-69
2022/07/09 07:07:34;;;;;;;35.53;25.92;;;;;;;18.33;92.60;102638.34;4892293;29;20033;-69
2022/07/09 07:09:59;;;;;;;32.65;24.45;;;;;;;18.39;93.40;102642.97;4889505;29;20024;-68
2022/07/09 07:12:25;;;;;;;32.33;24.00;;;;;;;18.50;92.04;102652.31;4893723;29;20500;-68
2022/07/09 07:14:50;;;;;;;37.55;26.77;;;;;;;18.60;92.06;102652.75;4893617;29;20465;-68
2022/07/09 07:17:16;;;;;;;29.60;20.80;;;;;;;18.67;90.42;102650.03;4893517;29;20032;-68
2022/07/09 07:19:41;;;;;;;30.42;21.25;;;;;;;18.71;89.15;102636.97;4893866;29;20044;-68
2022/07/09 07:22:07;;;;;;;24.73;16.23;;;;;;;18.77;89.39;102636.16;4893979;29;20044;-68
2022/07/09 07:24:32;;;;;;;24.63;18.58;;;;;;;18.83;89.54;102632.63;4893717;29;20092;-68
2022/07/09 07:26:58;;;;;;;24.52;18.00;;;;;;;18.93;88.17;102648.44;4876498;29;20033;-68
2022/07/09 07:29:24;;;;;;;28.92;19.17;;;;;;;19.10;86.67;102648.81;4893780;29;20040;-68
2022/07/09 07:31:49;;;;;;;23.60;15.02;;;;;;;19.36;86.59;102646.09;4876445;29;20432;-68
2022/07/09 07:34:15;;;;;;;20.80;13.82;;;;;;;19.61;84.32;102653.53;4893627;29;20033;-68
2022/07/09 07:36:41;;;;;;;20.63;13.73;;;;;;;19.75;82.64;102651.63;4893381;29;20488;-71
2022/07/09 07:39:06;;;;;;;19.15;12.20;;;;;;;19.82;81.61;102655.97;4893567;29;20071;-68
2022/07/09 07:41:32;;;;;;;18.73;11.27;;;;;;;19.83;79.83;102660.38;4893741;29;20041;-68
2022/07/09 07:43:57;;;;;;;19.50;10.32;;;;;;;19.77;80.43;102658.50;4893441;29;20035;-69
2022/07/09 07:46:23;;;;;;;19.50;12.40;;;;;;;19.64;80.58;102653.09;4893692;29;20076;-68
2022/07/09 07:48:48;;;;;;;16.63;10.10;;;;;;;19.58;79.47;102656.66;4893400;29;20037;-68
2022/07/09 07:51:13;;;;;;;18.60;11.00;;;;;;;19.48;81.61;102657.09;4893487;29;20136;-69
2022/07/09 07:53:39;;;;;;;19.00;10.93;;;;;;;19.37;82.87;102657.75;4893479;29;20127;-70
2022/07/09 07:56:05;;;;;;;16.83;10.40;;;;;;;19.33;83.15;102667.31;4893447;29;20055;-67
2022/07/09 07:58:31;;;;;;;19.45;11.88;;;;;;;19.32;83.94;102666.50;4893293;29;20100;-67
2022/07/09 08:00:57;;;;;;;24.08;13.55;;;;;;;19.39;83.99;102651.09;4893398;29;20444;-68
2022/07/09 08:03:22;;;;;;;21.25;12.15;;;;;;;19.42;82.61;102641.72;4894434;29;20075;-67
2022/07/09 08:05:47;;;;;;;23.55;12.63;;;;;;;19.53;83.00;102643.75;4896854;29;20029;-68
2022/07/09 08:08:13;;;;;;;20.85;12.82;;;;;;;19.76;83.07;102645.19;4897032;29;20036;-68
2022/07/09 08:10:38;;;;;;;24.30;14.18;;;;;;;20.08;81.97;102646.91;4896779;29;20480;-68
2022/07/09 08:13:04;;;;;;;21.20;13.88;;;;;;;20.35;79.19;102634.03;4896657;29;20461;-68
2022/07/09 08:15:29;;;;;;;19.75;12.40;;;;;;;20.79;77.64;102628.75;4896824;29;20044;-68
2022/07/09 08:17:54;;;;;;;20.30;12.25;;;;;;;22.29;72.62;102620.16;4879869;29;20073;-68
2022/07/09 08:20:20;;;;;;;18.83;12.18;;;;;;;23.25;67.23;102613.75;4896945;29;20037;-68
2022/07/09 08:22:46;;;;;;;20.30;12.10;;;;;;;22.70;69.71;102610.31;4896857;29;20049;-68
2022/07/09 08:25:12;;;;;;;18.33;10.43;;;;;;;22.75;69.35;102604.97;4895216;29;20092;-68
2022/07/09 08:27:37;;;;;;;19.50;12.23;;;;;;;24.17;64.39;102604.72;4891987;29;20039;-68
2022/07/09 08:30:03;;;;;;;16.58;10.30;;;;;;;25.45;59.90;102612.19;4892748;29;20020;-71
2022/07/09 08:32:29;;;;;;;16.13;9.98;;;;;;;26.19;55.81;102598.81;4892306;29;20654;-72
2022/07/09 08:34:54;;;;;;;14.23;9.13;;;;;;;27.41;53.91;102587.06;4881954;29;20382;-73
2022/07/09 08:37:19;;;;;;;14.18;9.20;;;;;;;28.72;48.80;102591.38;4891893;29;20047;-74
2022/07/09 08:39:45;;;;;;;16.55;9.63;;;;;;;29.08;48.18;102583.88;4892286;29;20374;-73
2022/07/09 08:42:10;;;;;;;16.73;9.13;;;;;;;28.65;47.41;102582.59;4891950;29;20025;-73
2022/07/09 08:44:39;;;;;;;14.05;8.63;;;;;;;28.07;49.59;102585.63;4892298;29;20039;-75
2022/07/09 08:47:05;;;;;;;15.65;9.57;;;;;;;27.43;50.92;102582.16;4891873;29;20536;-73
2022/07/09 08:49:31;;;;;;;16.60;10.82;;;;;;;26.73;52.37;102588.88;4892233;29;20033;-74
2022/07/09 08:51:57;;;;;;;16.13;9.55;;;;;;;26.13;54.75;102586.19;4891558;29;20052;-73
2022/07/09 08:54:23;;;;;;;15.90;9.00;;;;;;;25.68;54.14;102581.88;4892235;29;20072;-74
2022/07/09 08:56:53;;;;;;;18.63;9.85;;;;;;;24.92;56.17;102585.25;4891560;29;20037;-74
2022/07/09 08:59:18;;;;;;;16.52;10.00;;;;;;;24.58;59.69;102589.09;4894376;29;20048;-75
2022/07/09 09:01:44;;;;;;;15.00;9.20;;;;;;;24.35;58.39;102598.22;4896018;29;20055;-75
2022/07/09 09:04:09;;;;;;;19.70;9.43;;;;;;;23.92;58.91;102589.56;4895733;29;20032;-75
2022/07/09 09:06:39;;;;;;;15.52;9.32;;;;;;;23.55;59.91;102592.63;4896033;29;20450;-76
2022/07/09 09:09:08;;;;;;;19.52;10.10;;;;;;;23.24;61.82;102587.59;4896083;29;20092;-76
2022/07/09 09:11:35;;;;;;;21.90;11.68;;;;;;;22.95;63.13;102595.63;4895902;29;20024;-75
2022/07/09 09:14:01;;;;;;;21.10;12.15;;;;;;;22.61;65.31;102592.69;4895520;29;20044;-77
2022/07/09 09:16:26;;;;;;;19.52;12.32;;;;;;;22.28;65.67;102598.66;4894869;29;20492;-76
2022/07/09 09:18:53;;;;;;;18.80;12.02;;;;;;;21.97;67.36;102591.53;4895706;29;20399;-76
2022/07/09 09:21:21;;;;;;;20.48;11.75;;;;;;;21.73;69.00;102588.72;4896065;29;20042;-76
2022/07/09 09:23:50;;;;;;;19.30;11.07;;;;;;;21.69;69.44;102583.97;4895724;29;20028;-74
2022/07/09 09:26:23;;;;;;;21.33;12.07;;;;;;;21.57;69.72;102584.75;4895720;29;20148;-76
2022/07/09 09:28:53;;;;;;;16.80;10.50;;;;;;;21.53;69.60;102588.97;4895826;29;20159;-77
2022/07/09 09:31:22;;;;;;;16.20;10.68;;;;;;;21.48;69.45;102586.09;4895223;29;20088;-75
2022/07/09 09:33:49;;;;;;;18.83;10.45;;;;;;;21.38;69.77;102592.09;4895469;29;20035;-75
2022/07/09 09:36:28;;;;;;;20.17;11.80;;;;;;;21.29;70.58;102592.56;4895145;29;20044;-75
2022/07/09 09:38:54;;;;;;;17.25;11.35;;;;;;;21.24;71.21;102585.91;4895348;29;20033;-76
2022/07/09 09:41:24;;;;;;;16.83;10.55;;;;;;;21.22;70.78;102579.91;4895075;29;20056;-76
2022/07/09 09:43:56;;;;;;;16.63;10.25;;;;;;;21.27;71.97;102589.25;4895249;29;20571;-76
2022/07/09 09:46:22;;;;;;;20.25;10.23;;;;;;;21.20;71.60;102581.19;4895110;29;20036;-75
2022/07/09 09:48:50;;;;;;;17.70;11.43;;;;;;;21.19;71.35;102598.50;4895319;29;20029;-75
2022/07/09 09:51:19;;;;;;;26.02;12.60;;;;;;;21.04;72.28;102595.31;4894606;29;20033;-76
2022/07/09 09:53:45;;;;;;;17.70;10.43;;;;;;;20.91;72.10;102590.88;4894849;29;20035;-76
2022/07/09 09:56:11;;;;;;;20.65;12.82;;;;;;;20.84;72.44;102592.81;4877900;29;20044;-76
2022/07/09 09:58:36;;;;;;;18.40;12.13;;;;;;;20.75;73.09;102584.97;4894787;29;20508;-75
2022/07/09 10:01:02;;;;;;;22.27;11.32;;;;;;;20.78;73.24;102581.00;4894760;29;20068;-75
2022/07/09 10:03:30;;;;;;;19.20;12.55;;;;;;;21.14;74.29;102573.94;4894737;29;20048;-76
2022/07/09 10:05:55;;;;;;;18.67;10.63;;;;;;;21.56;72.54;102577.69;4894851;29;20075;-75
2022/07/09 10:08:20;;;;;;;21.65;10.30;;;;;;;21.79;73.31;102573.41;4894719;29;20068;-76
2022/07/09 10:10:52;;;;;;;17.77;11.27;;;;;;;22.14;71.14;102581.69;4877679;29;20032;-76
2022/07/09 10:13:21;;;;;;;20.05;10.30;;;;;;;22.16;68.92;102579.53;4894564;29;20032;-75
2022/07/09 10:15:51;;;;;;;18.40;10.85;;;;;;;22.06;68.66;102574.69;4894506;29;20473;-75
2022/07/09 10:18:20;;;;;;;19.10;10.70;;;;;;;22.06;68.84;102566.53;4894415;29;20041;-73
2022/07/09 10:20:45;;;;;;;19.17;11.07;;;;;;;22.04;68.69;102559.69;4894455;29;20029;-75
2022/07/09 10:23:22;;;;;;;20.15;11.45;;;;;;;22.04;68.81;102568.66;4894516;29;20043;-76
2022/07/09 10:25:50;;;;;;;18.17;10.00;;;;;;;22.02;67.46;102562.63;4894099;29;20024;-73
2022/07/09 10:28:20;;;;;;;18.42;9.90;;;;;;;22.04;69.41;102560.50;4894327;29;20096;-76
2022/07/09 10:30:46;;;;;;;15.20;10.55;;;;;;;21.99;68.39;102565.81;4894429;29;20164;-76
2022/07/09 10:33:19;;;;;;;14.93;9.45;;;;;;;21.97;67.63;102567.91;4894379;29;20436;-75
2022/07/09 10:35:47;;;;;;;16.67;10.80;;;;;;;21.92;68.98;102565.06;4894208;29;20029;-76
2022/07/09 10:38:14;;;;;;;17.67;9.40;;;;;;;21.97;67.59;102556.22;4894141;29;20032;-76
2022/07/09 10:40:44;;;;;;;13.80;9.52;;;;;;;22.13;68.68;102571.03;4894128;29;20033;-76
2022/07/09 10:43:11;;;;;;;13.93;8.50;;;;;;;22.43;69.17;102555.53;4894035;29;20497;-76
2022/07/09 10:45:39;;;;;;;17.13;9.55;;;;;;;22.76;69.26;102551.41;4894204;29;20062;-76
2022/07/09 10:48:06;;;;;;;13.85;8.40;;;;;;;23.00;66.71;102548.69;4894035;29;20033;-76
2022/07/09 10:50:36;;;;;;;14.25;7.70;;;;;;;23.09;65.66;102563.59;4894140;29;20049;-76
2022/07/09 10:53:02;;;;;;;13.75;8.20;;;;;;;23.06;64.97;102559.47;4894122;29;20033;-76
2022/07/09 10:55:28;;;;;;;13.90;8.07;;;;;;;23.01;65.11;102555.81;4877402;29;20127;-75
2022/07/09 10:57:54;;;;;;;15.07;10.10;;;;;;;22.97;67.96;102553.53;4893540;29;20116;-75
2022/07/09 11:00:23;;;;;;;15.38;7.55;;;;;;;23.07;66.09;102568.44;4894062;29;20048;-76
2022/07/09 11:03:05;;;;;;;9.00;5.25;;;;;;;23.06;65.17;102566.81;4893636;29;20512;-75
2022/07/09 11:05:44;;;;;;;10.55;5.20;;;;;;;23.06;64.82;102550.47;4893874;29;20462;-75